Home > Products > Valid Products > TAF

000
FTUS42 KTBW 041700
TAFSRQ
TAF
KSRQ 041739Z 0418/0518 19015G20KT P6SM FEW040
     FM042300 20009KT P6SM FEW250
     FM050300 16005KT P6SM FEW005 SCT250
     FM051700 17009KT P6SM SCT025 BKN035=



000
FTUS42 KTBW 041700
TAFTPA
TAF
KTPA 041739Z 0418/0518 19010KT P6SM FEW030
     FM050000 21005KT P6SM SCT250
     FM051100 14003KT P6SM SCT007
     FM051500 17006KT P6SM BKN035=



000
FTUS42 KTBW 041700
TAFRSW
TAF
KRSW 041739Z 0418/0518 18011G17KT P6SM FEW040
     FM042300 21007KT P6SM FEW045 SCT250
     FM050300 14003KT P6SM SKC
     FM051000 12004KT 2SM BR SCT005
     FM051400 15007KT P6SM SCT025 BKN035=



000
FTUS42 KTBW 041700
TAFFMY
TAF
KFMY 041739Z 0418/0518 18011KT P6SM FEW040
     FM050000 21006KT P6SM FEW045 SCT250
     FM050500 13004KT P6SM FEW005
     FM051400 15008KT P6SM SCT020 BKN035=



000
FTUS42 KTBW 041700
TAFPIE
TAF
KPIE 041739Z 0418/0518 19014KT P6SM FEW040
     FM042300 21009KT P6SM FEW250
     FM050400 16005KT P6SM FEW250
     FM051700 18011KT P6SM SCT025=



000
FTUS42 KTBW 041700
TAFSRQ
TAF
KSRQ 041739Z 0418/0518 19015G20KT P6SM FEW040
     FM042300 20009KT P6SM FEW250
     FM050300 16005KT P6SM FEW005 SCT250
     FM051700 17009KT P6SM SCT025 BKN035=



000
FTUS42 KTBW 041700
TAFRSW
TAF
KRSW 041739Z 0418/0518 18011G17KT P6SM FEW040
     FM042300 21007KT P6SM FEW045 SCT250
     FM050300 14003KT P6SM SKC
     FM051000 12004KT 2SM BR SCT005
     FM051400 15007KT P6SM SCT025 BKN035=



000
FTUS42 KTBW 041700
TAFPIE
TAF
KPIE 041739Z 0418/0518 19014KT P6SM FEW040
     FM042300 21009KT P6SM FEW250
     FM050400 16005KT P6SM FEW250
     FM051700 18011KT P6SM SCT025=



000
FTUS42 KTBW 041700
TAFFMY
TAF
KFMY 041739Z 0418/0518 18011KT P6SM FEW040
     FM050000 21006KT P6SM FEW045 SCT250
     FM050500 13004KT P6SM FEW005
     FM051400 15008KT P6SM SCT020 BKN035=



000
FTUS42 KTBW 041700
TAFTPA
TAF
KTPA 041739Z 0418/0518 19010KT P6SM FEW030
     FM050000 21005KT P6SM SCT250
     FM051100 14003KT P6SM SCT007
     FM051500 17006KT P6SM BKN035=



000
FTUS42 KTBW 041400 AAA
TAFTPA
TAF AMD
KTPA 041457Z 0415/0512 18010G15KT P6SM SCT025
     FM050100 20004KT P6SM FEW050 SCT250
     FM050800 VRB03KT 4SM BR SCT010=



000
FTUS42 KTBW 041100
TAFRSW
TAF
KRSW 041130Z 0412/0512 VRB03KT P6SM SCT250
     FM041500 13008KT P6SM SCT030 SCT250
     FM042200 21006KT P6SM FEW050 SCT250
     FM050300 13004KT P6SM SCT250
     FM050900 13003KT 4SM BR SCT010=



000
FTUS42 KTBW 041100
TAFPIE
TAF
KPIE 041130Z 0412/0512 13005KT P6SM SCT250
     FM041600 16009KT P6SM SCT020 SCT250
     FM050100 20005KT P6SM FEW050 SCT250
     FM050800 VRB03KT 4SM BR SCT010=



000
FTUS42 KTBW 041100
TAFFMY
TAF
KFMY 041130Z 0412/0512 VRB03KT P6SM SCT250
     FM041500 13008KT P6SM SCT030 SCT250
     FM042200 21008KT P6SM FEW050 SCT250
     FM050200 16004KT P6SM SCT250
     FM051000 14003KT 4SM BR SCT010=



000
FTUS42 KTBW 041100
TAFRSW
TAF
KRSW 041130Z 0412/0512 VRB03KT P6SM SCT250
     FM041500 13008KT P6SM SCT030 SCT250
     FM042200 21006KT P6SM FEW050 SCT250
     FM050300 13004KT P6SM SCT250
     FM050900 13003KT 4SM BR SCT010=



000
FTUS42 KTBW 041100
TAFTPA
TAF
KTPA 041130Z 0412/0512 13004KT P6SM SCT250
     FM041500 15008KT P6SM SCT025 SCT250
     FM050100 20004KT P6SM FEW050 SCT250
     FM050800 VRB03KT 4SM BR SCT010=



000
FTUS42 KTBW 041100
TAFSRQ
TAF
KSRQ 041130Z 0412/0512 12005KT P6SM SCT250
     FM041500 15009KT P6SM SCT030 SCT250
     FM050100 19005KT P6SM FEW050 SCT250
     FM050900 13003KT 4SM BR SCT010=



000
FTUS42 KTBW 041100
TAFSRQ
TAF
KSRQ 041130Z 0412/0512 12005KT P6SM SCT250
     FM041500 15009KT P6SM SCT030 SCT250
     FM050100 19005KT P6SM FEW050 SCT250
     FM050900 13003KT 4SM BR SCT010=



000
FTUS42 KTBW 041100
TAFFMY
TAF
KFMY 041130Z 0412/0512 VRB03KT P6SM SCT250
     FM041500 13008KT P6SM SCT030 SCT250
     FM042200 21008KT P6SM FEW050 SCT250
     FM050200 16004KT P6SM SCT250
     FM051000 14003KT 4SM BR SCT010=



000
FTUS42 KTBW 041100
TAFPIE
TAF
KPIE 041130Z 0412/0512 13005KT P6SM SCT250
     FM041600 16009KT P6SM SCT020 SCT250
     FM050100 20005KT P6SM FEW050 SCT250
     FM050800 VRB03KT 4SM BR SCT010=



000
FTUS42 KTBW 041100
TAFTPA
TAF
KTPA 041130Z 0412/0512 13004KT P6SM SCT250
     FM041500 15008KT P6SM SCT025 SCT250
     FM050100 20004KT P6SM FEW050 SCT250
     FM050800 VRB03KT 4SM BR SCT010=



000
FTUS42 KTBW 040900 AAA
TAFTPA
TAF AMD
KTPA 040905Z 0409/0506 VRB03KT 6SM BR SCT010
      TEMPO 0409/0413 3SM BR BKN010
     FM041400 16008KT P6SM SCT015
     FM041900 20010KT P6SM SCT035
     FM050200 19005KT P6SM SCT250=



000
FTUS42 KTBW 040500
TAFFMY
TAF
KFMY 040533Z 0406/0506 14004KT P6SM SCT250
     FM040800 08004KT 6SM BR SCT010
      TEMPO 0409/0413 3SM BR BKN010
     FM041400 15010KT P6SM SCT015
     FM041700 18012KT P6SM SCT035
     FM050200 15004KT P6SM SCT250=



000
FTUS42 KTBW 040500
TAFSRQ
TAF
KSRQ 040533Z 0406/0506 VRB03KT P6SM SCT250
     FM040800 13004KT 6SM BR SCT010
      TEMPO 0409/0413 3SM BR BKN010
     FM041400 16012KT P6SM SCT015
     FM041700 19015KT P6SM SCT035
     FM050300 16005KT P6SM SCT250=



000
FTUS42 KTBW 040500
TAFRSW
TAF
KRSW 040533Z 0406/0506 11004KT P6SM SCT250
     FM040800 08004KT 6SM BR SCT010
      TEMPO 0409/0413 3SM BR BKN010
     FM041400 15010KT P6SM SCT015
     FM041700 18012KT P6SM SCT035
     FM050200 15004KT P6SM SCT250=



000
FTUS42 KTBW 040500
TAFFMY
TAF
KFMY 040533Z 0406/0506 14004KT P6SM SCT250
     FM040800 08004KT 6SM BR SCT010
      TEMPO 0409/0413 3SM BR BKN010
     FM041400 15010KT P6SM SCT015
     FM041700 18012KT P6SM SCT035
     FM050200 15004KT P6SM SCT250=



000
FTUS42 KTBW 040500
TAFPIE
TAF
KPIE 040533Z 0406/0506 VRB04KT P6SM SCT250
     FM040800 14004KT 6SM BR SCT010
      TEMPO 0409/0413 3SM BR BKN010
     FM041400 16010KT P6SM SCT015
     FM041900 19014KT P6SM SCT035
     FM050200 18006KT P6SM SCT250=



000
FTUS42 KTBW 040500
TAFRSW
TAF
KRSW 040533Z 0406/0506 11004KT P6SM SCT250
     FM040800 08004KT 6SM BR SCT010
      TEMPO 0409/0413 3SM BR BKN010
     FM041400 15010KT P6SM SCT015
     FM041700 18012KT P6SM SCT035
     FM050200 15004KT P6SM SCT250=



000
FTUS42 KTBW 040500
TAFTPA
TAF
KTPA 040533Z 0406/0506 VRB03KT P6SM FEW060 SCT250
     FM040800 VRB03KT 6SM BR SCT010
      TEMPO 0409/0413 3SM BR BKN010
     FM041400 16008KT P6SM SCT015
     FM041900 20010KT P6SM SCT035
     FM050200 19005KT P6SM SCT250=



000
FTUS42 KTBW 040500
TAFSRQ
TAF
KSRQ 040533Z 0406/0506 VRB03KT P6SM SCT250
     FM040800 13004KT 6SM BR SCT010
      TEMPO 0409/0413 3SM BR BKN010
     FM041400 16012KT P6SM SCT015
     FM041700 19015KT P6SM SCT035
     FM050300 16005KT P6SM SCT250=



000
FTUS42 KTBW 040500
TAFTPA
TAF
KTPA 040533Z 0406/0506 VRB03KT P6SM FEW060 SCT250
     FM040800 VRB03KT 6SM BR SCT010
      TEMPO 0409/0413 3SM BR BKN010
     FM041400 16008KT P6SM SCT015
     FM041900 20010KT P6SM SCT035
     FM050200 19005KT P6SM SCT250=



000
FTUS42 KTBW 040500
TAFPIE
TAF
KPIE 040533Z 0406/0506 VRB04KT P6SM SCT250
     FM040800 14004KT 6SM BR SCT010
      TEMPO 0409/0413 3SM BR BKN010
     FM041400 16010KT P6SM SCT015
     FM041900 19014KT P6SM SCT035
     FM050200 18006KT P6SM SCT250=



000
FTUS42 KTBW 040200 AAA
TAFTPA
TAF AMD
KTPA 040256Z 0403/0424 VRB03KT P6SM FEW060 SCT250
     FM040800 VRB03KT 4SM BR SCT010
      TEMPO 0409/0413 1SM BR BKN010
     FM041400 16008KT P6SM SCT015
     FM041900 20010KT P6SM SCT035=



000
FTUS42 KTBW 040200 AAA
TAFTPA
TAF AMD
KTPA 040256Z 0403/0424 VRB03KT P6SM FEW060 SCT250
     FM040800 VRB03KT 4SM BR SCT010
      TEMPO 0409/0413 1SM BR BKN010
     FM041400 16008KT P6SM SCT015
     FM041900 20010KT P6SM SCT035=



000
FTUS42 KTBW 032300
TAFFMY
TAF
KFMY 032324Z 0400/0424 14004KT P6SM SCT250
     FM040800 08004KT 4SM BR SCT010
      TEMPO 0409/0413 1SM BR BKN010
     FM041400 15010KT P6SM SCT015
     FM041700 18012KT P6SM SCT035=



000
FTUS42 KTBW 032300
TAFSRQ
TAF
KSRQ 032324Z 0400/0424 VRB03KT P6SM SCT250
     FM040800 13004KT 4SM BR SCT010
      TEMPO 0409/0413 1SM BR BKN010
     FM041400 16012KT P6SM SCT015
     FM041700 19015KT P6SM SCT035=



000
FTUS42 KTBW 032300
TAFTPA
TAF
KTPA 032324Z 0400/0424 26005KT P6SM FEW050
     FM040100 VRB03KT P6SM SCT250
     FM040800 VRB03KT 4SM BR SCT010
      TEMPO 0409/0413 1SM BR BKN010
     FM041400 16008KT P6SM SCT015
     FM041900 20010KT P6SM SCT035=



000
FTUS42 KTBW 032300
TAFRSW
TAF
KRSW 032324Z 0400/0424 13008KT P6SM SCT250
     FM040100 11004KT P6SM SCT250
     FM040800 08004KT 4SM BR SCT010
      TEMPO 0409/0413 1SM BR BKN010
     FM041400 15010KT P6SM SCT015
     FM041700 18012KT P6SM SCT035=



000
FTUS42 KTBW 032300
TAFPIE
TAF
KPIE 032324Z 0400/0424 25005KT P6SM FEW050
     FM040100 VRB03KT P6SM SCT250
     FM040800 14004KT 4SM BR SCT010
      TEMPO 0409/0413 1SM BR BKN010
     FM041400 16010KT P6SM SCT015
     FM041900 19014KT P6SM SCT035=



000
FTUS42 KTBW 032000 AAA
TAFTPA
TAF AMD
KTPA 032056Z 0321/0418 18007KT P6SM BKN060
     FM032300 VRB04KT P6SM SCT060 SCT250
     FM040800 VRB03KT 4SM BR SCT010 SCT250
      TEMPO 0409/0413 1SM BR BKN010
     FM041400 15007KT P6SM SCT015 SCT250
     FM041700 18008KT P6SM SCT035 SCT250=



000
FTUS42 KTBW 032000 AAA
TAFSRQ
TAF AMD
KSRQ 032032Z 0321/0418 26008KT P6SM BKN050
     FM032300 28006KT P6SM SCT050 SCT250
     FM040100 VRB03KT P6SM FEW050 SCT250
     FM040800 13004KT 4SM BR SCT010 SCT250
      TEMPO 0409/0413 1SM BR BKN010
     FM041400 15010KT P6SM SCT015 SCT250
     FM041700 18014KT P6SM SCT035 SCT250=



000
FTUS42 KTBW 031700
TAFPIE
TAF
KPIE 031739Z 0318/0418 11007KT P6SM SCT035 SCT250
     FM032200 25005KT P6SM SCT050 SCT250
     FM040100 VRB03KT P6SM SCT050 SCT250
     FM040800 14004KT 4SM BR SCT010 SCT250
      TEMPO 0409/0413 1SM BR BKN010
     FM041400 15009KT P6SM SCT015 SCT250
     FM041700 18013KT P6SM SCT035 SCT250=



000
FTUS42 KTBW 031700
TAFSRQ
TAF
KSRQ 031739Z 0318/0418 12010KT P6SM BKN040
     FM032100 20008KT P6SM SCT040 SCT250
     FM032300 24006KT P6SM SCT050 SCT250
     FM040100 VRB03KT P6SM FEW050 SCT250
     FM040800 13004KT 4SM BR SCT010 SCT250
      TEMPO 0409/0413 1SM BR BKN010
     FM041400 15010KT P6SM SCT015 SCT250
     FM041700 18014KT P6SM SCT035 SCT250=



000
FTUS42 KTBW 031700
TAFRSW
TAF
KRSW 031739Z 0318/0418 13011KT P6SM BKN040
     FM032300 VRB05KT P6SM SCT050 SCT250
     FM040100 VRB03KT P6SM FEW050 SCT250
     FM040800 11004KT 4SM BR SCT010 SCT250
      TEMPO 0409/0413 1SM BR BKN010
     FM041400 14010KT P6SM SCT015 SCT250
     FM041700 17013KT P6SM SCT035 SCT250=



000
FTUS42 KTBW 031700
TAFTPA
TAF
KTPA 031739Z 0318/0418 15006KT P6SM SCT035 SCT250
     FM032000 22007KT P6SM SCT040 SCT250
     FM032300 VRB04KT P6SM SCT050 SCT250
     FM040800 VRB03KT 4SM BR SCT010 SCT250
      TEMPO 0409/0413 1SM BR BKN010
     FM041400 15007KT P6SM SCT015 SCT250
     FM041700 18008KT P6SM SCT035 SCT250=



000
FTUS42 KTBW 031700
TAFFMY
TAF
KFMY 031739Z 0318/0418 13011KT P6SM BKN040
     FM032300 VRB05KT P6SM SCT050 SCT250
     FM040100 VRB03KT P6SM FEW050 SCT250
     FM040800 11004KT 4SM BR SCT010 SCT250
      TEMPO 0409/0413 1SM BR BKN010
     FM041400 14010KT P6SM SCT015 SCT250
     FM041700 17013KT P6SM SCT035 SCT250=



000
FTUS42 KTBW 031700
TAFTPA
TAF
KTPA 031739Z 0318/0418 15006KT P6SM SCT035 SCT250
     FM032000 22007KT P6SM SCT040 SCT250
     FM032300 VRB04KT P6SM SCT050 SCT250
     FM040800 VRB03KT 4SM BR SCT010 SCT250
      TEMPO 0409/0413 1SM BR BKN010
     FM041400 15007KT P6SM SCT015 SCT250
     FM041700 18008KT P6SM SCT035 SCT250=



000
FTUS42 KTBW 031700
TAFFMY
TAF
KFMY 031739Z 0318/0418 13011KT P6SM BKN040
     FM032300 VRB05KT P6SM SCT050 SCT250
     FM040100 VRB03KT P6SM FEW050 SCT250
     FM040800 11004KT 4SM BR SCT010 SCT250
      TEMPO 0409/0413 1SM BR BKN010
     FM041400 14010KT P6SM SCT015 SCT250
     FM041700 17013KT P6SM SCT035 SCT250=



000
FTUS42 KTBW 031700
TAFRSW
TAF
KRSW 031739Z 0318/0418 13011KT P6SM BKN040
     FM032300 VRB05KT P6SM SCT050 SCT250
     FM040100 VRB03KT P6SM FEW050 SCT250
     FM040800 11004KT 4SM BR SCT010 SCT250
      TEMPO 0409/0413 1SM BR BKN010
     FM041400 14010KT P6SM SCT015 SCT250
     FM041700 17013KT P6SM SCT035 SCT250=



000
FTUS42 KTBW 031700
TAFSRQ
TAF
KSRQ 031739Z 0318/0418 12010KT P6SM BKN040
     FM032100 20008KT P6SM SCT040 SCT250
     FM032300 24006KT P6SM SCT050 SCT250
     FM040100 VRB03KT P6SM FEW050 SCT250
     FM040800 13004KT 4SM BR SCT010 SCT250
      TEMPO 0409/0413 1SM BR BKN010
     FM041400 15010KT P6SM SCT015 SCT250
     FM041700 18014KT P6SM SCT035 SCT250=



000
FTUS42 KTBW 031700
TAFPIE
TAF
KPIE 031739Z 0318/0418 11007KT P6SM SCT035 SCT250
     FM032200 25005KT P6SM SCT050 SCT250
     FM040100 VRB03KT P6SM SCT050 SCT250
     FM040800 14004KT 4SM BR SCT010 SCT250
      TEMPO 0409/0413 1SM BR BKN010
     FM041400 15009KT P6SM SCT015 SCT250
     FM041700 18013KT P6SM SCT035 SCT250=



000
FTUS42 KTBW 031500 AAB
TAFTPA
TAF AMD
KTPA 031507Z 0315/0412 13005KT P6SM SCT015 SCT250
     FM031600 15006KT P6SM SCT025 SCT250
     FM032000 24007KT P6SM SCT035 SCT250
     FM040100 VRB05KT P6SM BKN035
     FM040600 VRB03KT 3SM BR SCT010 SCT250=



000
FTUS42 KTBW 031500 AAB
TAFTPA
TAF AMD
KTPA 031507Z 0315/0412 13005KT P6SM SCT015 SCT250
     FM031600 15006KT P6SM SCT025 SCT250
     FM032000 24007KT P6SM SCT035 SCT250
     FM040100 VRB05KT P6SM BKN035
     FM040600 VRB03KT 3SM BR SCT010 SCT250=



000
FTUS42 KTBW 031400 AAB
TAFRSW
TAF AMD
KRSW 031422Z 0314/0412 09007KT P6SM SCT008
     FM031500 10010KT P6SM SCT025
     FM031700 12011KT P6SM SCT040
     FM032300 VRB05KT P6SM FEW050
     FM040100 VRB03KT P6SM SCT250
     FM040600 10004KT 3SM BR SCT010 SCT250=



000
FTUS42 KTBW 031400 AAB
TAFRSW
TAF AMD
KRSW 031422Z 0314/0412 09007KT P6SM SCT008
     FM031500 10010KT P6SM SCT025
     FM031700 12011KT P6SM SCT040
     FM032300 VRB05KT P6SM FEW050
     FM040100 VRB03KT P6SM SCT250
     FM040600 10004KT 3SM BR SCT010 SCT250=



000
FTUS42 KTBW 031400 AAB
TAFFMY
TAF AMD
KFMY 031422Z 0314/0412 10007KT P6SM SCT008
     FM031500 10010KT P6SM SCT025
     FM031700 13011KT P6SM SCT040
     FM032300 VRB05KT P6SM FEW050
     FM040100 VRB03KT P6SM SCT250
     FM040600 10004KT 3SM BR SCT010 SCT250=



000
FTUS42 KTBW 031400 AAB
TAFFMY
TAF AMD
KFMY 031422Z 0314/0412 10007KT P6SM SCT008
     FM031500 10010KT P6SM SCT025
     FM031700 13011KT P6SM SCT040
     FM032300 VRB05KT P6SM FEW050
     FM040100 VRB03KT P6SM SCT250
     FM040600 10004KT 3SM BR SCT010 SCT250=



000
FTUS42 KTBW 031400 AAC
TAFSRQ
TAF AMD
KSRQ 031413Z 0314/0412 10007KT P6SM SCT005 SCT250
     FM031500 12008KT P6SM SCT025
     FM032000 21009KT P6SM SCT040
     FM032300 VRB05KT P6SM SCT050
     FM040100 VRB03KT P6SM SCT250
     FM040600 12004KT 3SM BR SCT010 SCT250=



000
FTUS42 KTBW 031300 AAB
TAFSRQ
TAF AMD
KSRQ 031334Z 0314/0412 10007KT 6SM BR SCT002 BKN005
      TEMPO 0314/0315 3SM BR BKN002
     FM031500 12008KT P6SM SCT008 SCT025
     FM032000 21009KT P6SM SCT040
     FM032300 VRB05KT P6SM SCT050
     FM040100 VRB03KT P6SM SCT250
     FM040600 12004KT 3SM BR SCT010 SCT250=



000
FTUS42 KTBW 031300 AAA
TAFSRQ
TAF AMD
KSRQ 031321Z 0313/0412 09005KT 1/4SM FG VV002
     FM031400 10007KT 2SM BR SCT002 BKN005
      TEMPO 0314/0315 1/2SM FG BKN002
     FM031500 12008KT P6SM SCT008 SCT025
     FM032000 21009KT P6SM SCT040
     FM032300 VRB05KT P6SM SCT050
     FM040100 VRB03KT P6SM SCT250
     FM040600 12004KT 3SM BR SCT010 SCT250=



000
FTUS42 KTBW 031300 AAA
TAFFMY
TAF AMD
KFMY 031311Z 0313/0412 06006KT 1/2SM FG VV002
     FM031400 08007KT 3SM BR SCT002 BKN005
      TEMPO 0314/0315 1SM BR BKN002
     FM031500 10010KT P6SM SCT008 SCT025
     FM031700 13011KT P6SM SCT040
     FM032300 VRB05KT P6SM FEW050
     FM040100 VRB03KT P6SM SCT250
     FM040600 10004KT 3SM BR SCT010 SCT250=



000
FTUS42 KTBW 031300 AAA
TAFRSW
TAF AMD
KRSW 031308Z 0313/0412 06006KT 1/4SM FG VV002
     FM031400 08007KT 2SM BR SCT002 BKN005
      TEMPO 0314/0315 1/2SM FG BKN002
     FM031500 10010KT P6SM SCT008 SCT025
     FM031700 12011KT P6SM SCT040
     FM032300 VRB05KT P6SM FEW050
     FM040100 VRB03KT P6SM SCT250
     FM040600 10004KT 3SM BR SCT010 SCT250=



000
FTUS42 KTBW 031300 AAA
TAFRSW
TAF AMD
KRSW 031308Z 0313/0412 06006KT 1/4SM FG VV002
     FM031400 08007KT 2SM BR SCT002 BKN005
      TEMPO 0314/0315 1/2SM FG BKN002
     FM031500 10010KT P6SM SCT008 SCT025
     FM031700 12011KT P6SM SCT040
     FM032300 VRB05KT P6SM FEW050
     FM040100 VRB03KT P6SM SCT250
     FM040600 10004KT 3SM BR SCT010 SCT250=



000
FTUS42 KTBW 031300 AAA
TAFPIE
TAF AMD
KPIE 031301Z 0313/0412 08004KT 6SM BR FEW002 SCT250
      TEMPO 0313/0314 3SM BR SCT002
     FM031400 09005KT P6SM SCT008 SCT250
     FM031600 11006KT P6SM SCT025 SCT250
     FM032000 27007KT P6SM SCT035 SCT250
     FM040100 VRB05KT P6SM BKN035
     FM040600 VRB03KT 3SM BR SCT010 SCT250=



000
FTUS42 KTBW 031300 AAA
TAFPIE
TAF AMD
KPIE 031301Z 0313/0412 08004KT 6SM BR FEW002 SCT250
      TEMPO 0313/0314 3SM BR SCT002
     FM031400 09005KT P6SM SCT008 SCT250
     FM031600 11006KT P6SM SCT025 SCT250
     FM032000 27007KT P6SM SCT035 SCT250
     FM040100 VRB05KT P6SM BKN035
     FM040600 VRB03KT 3SM BR SCT010 SCT250=



000
FTUS42 KTBW 031300 AAA
TAFTPA
TAF AMD
KTPA 031300Z 0313/0412 08003KT 6SM BR FEW002 SCT250
      TEMPO 0313/0314 3SM BR SCT002
     FM031400 09005KT P6SM SCT008 SCT250
     FM031600 13006KT P6SM SCT025 SCT250
     FM032000 24007KT P6SM SCT035 SCT250
     FM040100 VRB05KT P6SM BKN035
     FM040600 VRB03KT 3SM BR SCT010 SCT250=



000
FTUS42 KTBW 031100
TAFRSW
TAF
KRSW 031129Z 0312/0412 05004KT 1SM BR SCT002 BKN004
     FM031400 08007KT P6SM SCT015 SCT025
     FM032300 17005KT P6SM SCT050
     FM040000 VRB03KT P6SM FEW050 SCT200
     FM040600 10004KT 3SM BR SCT010 SCT250=



000
FTUS42 KTBW 031100
TAFFMY
TAF
KFMY 031129Z 0312/0412 05005KT 1SM BR SCT002 BKN004
     FM031400 09007KT P6SM SCT015 SCT025
     FM032200 17005KT P6SM SCT045
     FM040100 VRB03KT P6SM FEW050 SCT250
     FM040600 10005KT 3SM BR SCT010 SCT250=



000
FTUS42 KTBW 031100
TAFTPA
TAF
KTPA 031129Z 0312/0412 VRB03KT 1/2SM FG SCT002 OVC004
     FM031400 09005KT P6SM SCT015 BKN025
     FM031600 13006KT P6SM SCT030 SCT250
     FM032000 24007KT P6SM SCT035 SCT250
     FM040100 VRB05KT P6SM BKN035
     FM040600 VRB03KT 3SM BR SCT010 SCT250=



000
FTUS42 KTBW 031100
TAFPIE
TAF
KPIE 031129Z 0312/0412 08004KT 1/2SM FG SCT002 OVC004
     FM031400 09005KT P6SM SCT015 BKN025
     FM031600 16006KT P6SM SCT030 SCT250
     FM032000 27007KT P6SM SCT035 SCT250
     FM040100 VRB05KT P6SM BKN035
     FM040600 VRB03KT 3SM BR SCT010 SCT250=



000
FTUS42 KTBW 031100
TAFFMY
TAF
KFMY 031129Z 0312/0412 05005KT 1SM BR SCT002 BKN004
     FM031400 09007KT P6SM SCT015 SCT025
     FM032200 17005KT P6SM SCT045
     FM040100 VRB03KT P6SM FEW050 SCT250
     FM040600 10005KT 3SM BR SCT010 SCT250=



000
FTUS42 KTBW 031100
TAFTPA
TAF
KTPA 031129Z 0312/0412 VRB03KT 1/2SM FG SCT002 OVC004
     FM031400 09005KT P6SM SCT015 BKN025
     FM031600 13006KT P6SM SCT030 SCT250
     FM032000 24007KT P6SM SCT035 SCT250
     FM040100 VRB05KT P6SM BKN035
     FM040600 VRB03KT 3SM BR SCT010 SCT250=



000
FTUS42 KTBW 031100
TAFPIE
TAF
KPIE 031129Z 0312/0412 08004KT 1/2SM FG SCT002 OVC004
     FM031400 09005KT P6SM SCT015 BKN025
     FM031600 16006KT P6SM SCT030 SCT250
     FM032000 27007KT P6SM SCT035 SCT250
     FM040100 VRB05KT P6SM BKN035
     FM040600 VRB03KT 3SM BR SCT010 SCT250=



000
FTUS42 KTBW 031100
TAFSRQ
TAF
KSRQ 031129Z 0312/0412 07005KT 1SM BR SCT002 OVC004
     FM031400 09006KT P6SM SCT015 BKN025
     FM031600 14005KT P6SM SCT030 SCT250
     FM032000 19004KT P6SM SCT045 SCT250
     FM040000 27005KT P6SM BKN035
     FM040600 VRB03KT 3SM BR SCT010 SCT250=



000
FTUS42 KTBW 031100
TAFRSW
TAF
KRSW 031129Z 0312/0412 05004KT 1SM BR SCT002 BKN004
     FM031400 08007KT P6SM SCT015 SCT025
     FM032300 17005KT P6SM SCT050
     FM040000 VRB03KT P6SM FEW050 SCT200
     FM040600 10004KT 3SM BR SCT010 SCT250=



000
FTUS42 KTBW 031100
TAFSRQ
TAF
KSRQ 031129Z 0312/0412 07005KT 1SM BR SCT002 OVC004
     FM031400 09006KT P6SM SCT015 BKN025
     FM031600 14005KT P6SM SCT030 SCT250
     FM032000 19004KT P6SM SCT045 SCT250
     FM040000 27005KT P6SM BKN035
     FM040600 VRB03KT 3SM BR SCT010 SCT250=



000
FTUS42 KTBW 031000 AAB
TAFSRQ
TAF AMD
KSRQ 031041Z 0311/0406 07004KT 4SM BR OVC005
     FM031400 11007KT P6SM SCT010 BKN020
     FM031600 13007KT P6SM SCT030 SCT250
     FM032100 25009KT P6SM SCT040 SCT250=



000
FTUS42 KTBW 031000 AAC
TAFPIE
TAF AMD
KPIE 031017Z 0310/0406 VRB04KT 1/4SM FG BKN002 OVC004
     FM031400 12006KT P6SM SCT010 BKN020
     FM031600 13008KT P6SM SCT030 SCT250
     FM032000 27007KT P6SM BKN040
     FM040000 VRB04KT P6SM SCT050 SCT250=



000
FTUS42 KTBW 031000 AAC
TAFPIE
TAF AMD
KPIE 031017Z 0310/0406 VRB04KT 1/4SM FG BKN002 OVC004
     FM031400 12006KT P6SM SCT010 BKN020
     FM031600 13008KT P6SM SCT030 SCT250
     FM032000 27007KT P6SM BKN040
     FM040000 VRB04KT P6SM SCT050 SCT250=



000
FTUS42 KTBW 031000 AAD
TAFTPA
TAF AMD
KTPA 031011Z 0310/0406 VRB03KT 1/4SM FG SCT002 OVC004
     FM031400 10006KT P6SM SCT015 BKN025
     FM031600 13006KT P6SM SCT030 SCT250
     FM032000 24007KT P6SM BKN040
     FM040000 VRB04KT P6SM SCT050 SCT250=



000
FTUS42 KTBW 031000 AAA
TAFRSW
TAF AMD
KRSW 031008Z 0310/0406 06003KT P6SM SCT010
      TEMPO 0310/0312 3SM BR BKN010
     FM031400 10010KT P6SM SCT010 SCT250
     FM031600 13012KT P6SM SCT030 SCT250
     FM040000 VRB05KT P6SM SCT005 SCT250=



000
FTUS42 KTBW 031000 AAA
TAFRSW
TAF AMD
KRSW 031008Z 0310/0406 06003KT P6SM SCT010
      TEMPO 0310/0312 3SM BR BKN010
     FM031400 10010KT P6SM SCT010 SCT250
     FM031600 13012KT P6SM SCT030 SCT250
     FM040000 VRB05KT P6SM SCT005 SCT250=



000
FTUS42 KTBW 031000 AAA
TAFFMY
TAF AMD
KFMY 031007Z 0310/0406 10004KT P6SM SCT010
      TEMPO 0310/0312 3SM BR BKN010
     FM031400 10008KT P6SM SCT010 SCT250
     FM031600 13010KT P6SM SCT030 SCT250
     FM032100 18009KT P6SM SCT040 SCT250=



000
FTUS42 KTBW 031000 AAA
TAFSRQ
TAF AMD
KSRQ 031002Z 0310/0406 07004KT P6SM SCT010
     FM031100 08003KT 4SM BR OVC005
     FM031400 11007KT P6SM SCT010 BKN020
     FM031600 13007KT P6SM SCT030 SCT250
     FM032100 25009KT P6SM SCT040 SCT250=



000
FTUS42 KTBW 031000 AAA
TAFSRQ
TAF AMD
KSRQ 031002Z 0310/0406 07004KT P6SM SCT010
     FM031100 08003KT 4SM BR OVC005
     FM031400 11007KT P6SM SCT010 BKN020
     FM031600 13007KT P6SM SCT030 SCT250
     FM032100 25009KT P6SM SCT040 SCT250=



000
FTUS42 KTBW 030800 AAC
TAFTPA
TAF AMD
KTPA 030856Z 0309/0406 VRB03KT 1/2SM FG SCT002 OVC004
     FM031400 10006KT P6SM SCT015 BKN025
     FM031600 13006KT P6SM SCT030 SCT250
     FM032000 24007KT P6SM BKN040
     FM040000 VRB04KT P6SM SCT050 SCT250=



000
FTUS42 KTBW 030800 AAC
TAFTPA
TAF AMD
KTPA 030856Z 0309/0406 VRB03KT 1/2SM FG SCT002 OVC004
     FM031400 10006KT P6SM SCT015 BKN025
     FM031600 13006KT P6SM SCT030 SCT250
     FM032000 24007KT P6SM BKN040
     FM040000 VRB04KT P6SM SCT050 SCT250=



000
FTUS42 KTBW 030800 AAB
TAFPIE
TAF AMD
KPIE 030818Z 0308/0406 VRB04KT 1/2SM FG SCT002 OVC004
     FM031400 12006KT P6SM SCT010 BKN020
     FM031600 13008KT P6SM SCT030 SCT250
     FM032000 27007KT P6SM BKN040
     FM040000 VRB04KT P6SM SCT050 SCT250=



000
FTUS42 KTBW 030800 AAB
TAFPIE
TAF AMD
KPIE 030818Z 0308/0406 VRB04KT 1/2SM FG SCT002 OVC004
     FM031400 12006KT P6SM SCT010 BKN020
     FM031600 13008KT P6SM SCT030 SCT250
     FM032000 27007KT P6SM BKN040
     FM040000 VRB04KT P6SM SCT050 SCT250=



000
FTUS42 KTBW 030800 AAB
TAFTPA
TAF AMD
KTPA 030811Z 0308/0406 VRB03KT 1/2SM FG OVC004
     FM031400 10006KT P6SM SCT015 BKN025
     FM031600 13006KT P6SM SCT030 SCT250
     FM032000 24007KT P6SM BKN040
     FM040000 VRB04KT P6SM SCT050 SCT250=



000
FTUS42 KTBW 030800 AAB
TAFTPA
TAF AMD
KTPA 030811Z 0308/0406 VRB03KT 1/2SM FG OVC004
     FM031400 10006KT P6SM SCT015 BKN025
     FM031600 13006KT P6SM SCT030 SCT250
     FM032000 24007KT P6SM BKN040
     FM040000 VRB04KT P6SM SCT050 SCT250=



000
FTUS42 KTBW 030700 AAA
TAFTPA
TAF AMD
KTPA 030701Z 0307/0406 VRB03KT 4SM BR SCT005 BKN010
     FM031000 VRB03KT 4SM BR OVC004
     FM031400 10006KT P6SM SCT015 BKN025
     FM031600 13006KT P6SM SCT030 SCT250
     FM032000 24007KT P6SM BKN040
     FM040000 VRB04KT P6SM SCT050 SCT250=



000
FTUS42 KTBW 030700 AAA
TAFTPA
TAF AMD
KTPA 030701Z 0307/0406 VRB03KT 4SM BR SCT005 BKN010
     FM031000 VRB03KT 4SM BR OVC004
     FM031400 10006KT P6SM SCT015 BKN025
     FM031600 13006KT P6SM SCT030 SCT250
     FM032000 24007KT P6SM BKN040
     FM040000 VRB04KT P6SM SCT050 SCT250=



000
FTUS42 KTBW 030500 AAA
TAFPIE
TAF AMD
KPIE 030553Z 0306/0406 VRB03KT 6SM BR BKN005
     FM030800 08003KT 4SM BR BKN005
     FM031000 08003KT 2SM BR OVC004
     FM031400 12006KT P6SM SCT010 BKN020
     FM031600 13008KT P6SM SCT030 SCT250
     FM032000 27007KT P6SM BKN040
     FM040000 VRB04KT P6SM SCT050 SCT250=



000
FTUS42 KTBW 030500 AAA
TAFPIE
TAF AMD
KPIE 030553Z 0306/0406 VRB03KT 6SM BR BKN005
     FM030800 08003KT 4SM BR BKN005
     FM031000 08003KT 2SM BR OVC004
     FM031400 12006KT P6SM SCT010 BKN020
     FM031600 13008KT P6SM SCT030 SCT250
     FM032000 27007KT P6SM BKN040
     FM040000 VRB04KT P6SM SCT050 SCT250=



000
FTUS42 KTBW 030500
TAFTPA
TAF
KTPA 030536Z 0306/0406 VRB04KT P6SM SKC
     FM030800 VRB03KT 4SM BR FEW005 BKN007
     FM031000 VRB03KT 4SM BR OVC004
     FM031400 10006KT P6SM SCT015 BKN025
     FM031600 13006KT P6SM SCT030 SCT250
     FM032000 24007KT P6SM BKN040
     FM040000 VRB04KT P6SM SCT050 SCT250=



000
FTUS42 KTBW 030500
TAFSRQ
TAF
KSRQ 030536Z 0306/0406 07004KT P6SM SKC
     FM030800 08003KT 6SM BR BKN007
     FM031000 08003KT 4SM BR OVC003
     FM031400 11007KT P6SM SCT010 BKN020
     FM031600 13007KT P6SM SCT030 SCT250
     FM032100 25009KT P6SM SCT040 SCT250=



000
FTUS42 KTBW 030500
TAFFMY
TAF
KFMY 030536Z 0306/0406 10004KT P6SM SKC
     FM030900 08003KT 2SM BR BKN005
     FM031400 10008KT P6SM SCT010 SCT250
     FM031600 13010KT P6SM SCT030 SCT250
     FM032100 18009KT P6SM SCT040 SCT250=



000
FTUS42 KTBW 030500
TAFRSW
TAF
KRSW 030536Z 0306/0406 10004KT P6SM SKC
     FM030900 08003KT 1SM BR BKN003
     FM031400 10010KT P6SM SCT010 SCT250
     FM031600 13012KT P6SM SCT030 SCT250
     FM040000 VRB05KT P6SM SCT005 SCT250=



000
FTUS42 KTBW 030500
TAFPIE
TAF
KPIE 030536Z 0306/0406 VRB04KT P6SM SCT005
     FM030800 08003KT 4SM BR BKN005
     FM031000 08003KT 2SM BR OVC004
     FM031400 12006KT P6SM SCT010 BKN020
     FM031600 13008KT P6SM SCT030 SCT250
     FM032000 27007KT P6SM BKN040
     FM040000 VRB04KT P6SM SCT050 SCT250=



000
FTUS42 KTBW 030500
TAFFMY
TAF
KFMY 030536Z 0306/0406 10004KT P6SM SKC
     FM030900 08003KT 2SM BR BKN005
     FM031400 10008KT P6SM SCT010 SCT250
     FM031600 13010KT P6SM SCT030 SCT250
     FM032100 18009KT P6SM SCT040 SCT250=



000
FTUS42 KTBW 030500
TAFRSW
TAF
KRSW 030536Z 0306/0406 10004KT P6SM SKC
     FM030900 08003KT 1SM BR BKN003
     FM031400 10010KT P6SM SCT010 SCT250
     FM031600 13012KT P6SM SCT030 SCT250
     FM040000 VRB05KT P6SM SCT005 SCT250=



000
FTUS42 KTBW 030500
TAFPIE
TAF
KPIE 030536Z 0306/0406 VRB04KT P6SM SCT005
     FM030800 08003KT 4SM BR BKN005
     FM031000 08003KT 2SM BR OVC004
     FM031400 12006KT P6SM SCT010 BKN020
     FM031600 13008KT P6SM SCT030 SCT250
     FM032000 27007KT P6SM BKN040
     FM040000 VRB04KT P6SM SCT050 SCT250=



000
FTUS42 KTBW 030500
TAFSRQ
TAF
KSRQ 030536Z 0306/0406 07004KT P6SM SKC
     FM030800 08003KT 6SM BR BKN007
     FM031000 08003KT 4SM BR OVC003
     FM031400 11007KT P6SM SCT010 BKN020
     FM031600 13007KT P6SM SCT030 SCT250
     FM032100 25009KT P6SM SCT040 SCT250=



000
FTUS42 KTBW 030500
TAFTPA
TAF
KTPA 030536Z 0306/0406 VRB04KT P6SM SKC
     FM030800 VRB03KT 4SM BR FEW005 BKN007
     FM031000 VRB03KT 4SM BR OVC004
     FM031400 10006KT P6SM SCT015 BKN025
     FM031600 13006KT P6SM SCT030 SCT250
     FM032000 24007KT P6SM BKN040
     FM040000 VRB04KT P6SM SCT050 SCT250=



000
FTUS42 KTBW 030200 AAA
TAFTPA
TAF AMD
KTPA 030255Z 0303/0324 VRB04KT P6SM SKC
     FM030800 VRB03KT 4SM BR FEW005 BKN007
     FM031000 VRB03KT 4SM BR OVC004
     FM031400 10006KT P6SM SCT015 SCT250
     FM031600 13006KT P6SM SCT030 SCT250=



000
FTUS42 KTBW 030200 AAA
TAFTPA
TAF AMD
KTPA 030255Z 0303/0324 VRB04KT P6SM SKC
     FM030800 VRB03KT 4SM BR FEW005 BKN007
     FM031000 VRB03KT 4SM BR OVC004
     FM031400 10006KT P6SM SCT015 SCT250
     FM031600 13006KT P6SM SCT030 SCT250=



000
FTUS42 KTBW 022300
TAFTPA
TAF
KTPA 022321Z 0300/0324 27008KT P6SM SCT030 SCT050
     FM030200 VRB04KT P6SM SKC
     FM030800 VRB03KT 4SM BR FEW005 BKN007
     FM031000 VRB03KT 4SM BR OVC004
     FM031400 10006KT P6SM SCT015 SCT250
     FM031600 13006KT P6SM SCT030 SCT250=



000
FTUS42 KTBW 022300
TAFSRQ
TAF
KSRQ 022321Z 0300/0324 29009KT P6SM FEW030
     FM030200 07004KT P6SM SKC
     FM030800 08003KT 6SM BR BKN007
     FM031000 08003KT 4SM BR OVC003
     FM031400 11007KT P6SM SCT010 SCT250
     FM031600 13007KT P6SM SCT030 SCT250=



000
FTUS42 KTBW 022300
TAFPIE
TAF
KPIE 022321Z 0300/0324 31009KT P6SM FEW050
     FM030200 VRB04KT P6SM SKC
     FM030800 08003KT 4SM BR BKN007
     FM031000 08003KT 2SM BR OVC004
     FM031400 12006KT P6SM SCT010 SCT250
     FM031600 13008KT P6SM SCT030 SCT250=



000
FTUS42 KTBW 022300
TAFFMY
TAF
KFMY 022321Z 0300/0324 05005KT P6SM BKN060
     FM030200 07004KT P6SM SKC
     FM030900 08003KT 2SM BR BKN005
     FM031400 10008KT P6SM SCT010 SCT250
     FM031600 13010KT P6SM SCT030 SCT250=



000
FTUS42 KTBW 022300
TAFRSW
TAF
KRSW 022321Z 0300/0324 07006KT P6SM BKN060
     FM030200 07004KT P6SM SKC
     FM030900 08003KT 1SM BR BKN003
     FM031400 10010KT P6SM SCT010 SCT250
     FM031600 13012KT P6SM SCT030 SCT250=



000
FTUS42 KTBW 022000 AAA
TAFTPA
TAF AMD
KTPA 022057Z 0221/0318 28008KT P6SM SCT025 SCT050
     FM030000 VRB04KT P6SM FEW040
     FM030800 VRB03KT 4SM BR FEW005 BKN015
     FM031300 10007KT P6SM FEW030 SCT250=



000
FTUS42 KTBW 022000 AAA
TAFTPA
TAF AMD
KTPA 022057Z 0221/0318 28008KT P6SM SCT025 SCT050
     FM030000 VRB04KT P6SM FEW040
     FM030800 VRB03KT 4SM BR FEW005 BKN015
     FM031300 10007KT P6SM FEW030 SCT250=



000
FTUS42 KTBW 021700
TAFRSW
TAF
KRSW 021735Z 0218/0318 12007KT P6SM SCT030
     FM022000 07008KT P6SM SCT040
     FM030100 VRB05KT P6SM FEW040
     FM030800 07004KT 3SM BR FEW005 BKN015
     FM031300 11010KT P6SM FEW030 SCT250=



000
FTUS42 KTBW 021700
TAFSRQ
TAF
KSRQ 021735Z 0218/0318 VRB05KT P6SM SCT030
     FM021900 29008KT P6SM SCT040
     FM030100 VRB05KT P6SM SCT040
     FM030800 09094KT 4SM BR FEW005 BKN015
     FM031300 11007KT P6SM FEW030 SCT250=



000
FTUS42 KTBW 021700
TAFTPA
TAF
KTPA 021735Z 0218/0318 24006KT P6SM SCT030
     FM021900 29006KT P6SM FEW040
     FM030000 VRB04KT P6SM FEW040
     FM030800 VRB03KT 4SM BR FEW005 BKN015
     FM031300 10007KT P6SM FEW030 SCT250=



000
FTUS42 KTBW 021700
TAFPIE
TAF
KPIE 021735Z 0218/0318 09005KT P6SM SCT025
     FM022000 31007KT P6SM FEW040
     FM030100 VRB04KT P6SM FEW040
     FM030800 VRB04KT 3SM BR SCT005 BKN015
     FM031300 12007KT P6SM FEW030 SCT250=



000
FTUS42 KTBW 021700
TAFTPA
TAF
KTPA 021735Z 0218/0318 24006KT P6SM SCT030
     FM021900 29006KT P6SM FEW040
     FM030000 VRB04KT P6SM FEW040
     FM030800 VRB03KT 4SM BR FEW005 BKN015
     FM031300 10007KT P6SM FEW030 SCT250=



000
FTUS42 KTBW 021700
TAFRSW
TAF
KRSW 021735Z 0218/0318 12007KT P6SM SCT030
     FM022000 07008KT P6SM SCT040
     FM030100 VRB05KT P6SM FEW040
     FM030800 07004KT 3SM BR FEW005 BKN015
     FM031300 11010KT P6SM FEW030 SCT250=



000
FTUS42 KTBW 021700
TAFSRQ
TAF
KSRQ 021735Z 0218/0318 VRB05KT P6SM SCT030
     FM021900 29008KT P6SM SCT040
     FM030100 VRB05KT P6SM SCT040
     FM030800 09094KT 4SM BR FEW005 BKN015
     FM031300 11007KT P6SM FEW030 SCT250=



000
FTUS42 KTBW 021700
TAFFMY
TAF
KFMY 021735Z 0218/0318 16007KT P6SM SCT025
     FM022000 06008KT P6SM SCT040
     FM030100 VRB04KT P6SM FEW040
     FM030800 07004KT 4SM BR FEW005 BKN015
     FM031300 12008KT P6SM FEW030 SCT250=



000
FTUS42 KTBW 021700
TAFPIE
TAF
KPIE 021735Z 0218/0318 09005KT P6SM SCT025
     FM022000 31007KT P6SM FEW040
     FM030100 VRB04KT P6SM FEW040
     FM030800 VRB04KT 3SM BR SCT005 BKN015
     FM031300 12007KT P6SM FEW030 SCT250=



000
FTUS42 KTBW 021700
TAFFMY
TAF
KFMY 021735Z 0218/0318 16007KT P6SM SCT025
     FM022000 06008KT P6SM SCT040
     FM030100 VRB04KT P6SM FEW040
     FM030800 07004KT 4SM BR FEW005 BKN015
     FM031300 12008KT P6SM FEW030 SCT250=



000
FTUS42 KTBW 021400 AAA
TAFTPA
TAF AMD
KTPA 021458Z 0215/0312 VRB05KT P6SM FEW015 BKN050
     FM021900 27006KT P6SM FEW040
     FM030000 VRB04KT P6SM FEW040
     FM030800 VRB03KT 4SM BR BKN015=



000
FTUS42 KTBW 021400 AAA
TAFPIE
TAF AMD
KPIE 021407Z 0214/0312 VRB04KT 5SM BR OVC003
     FM021500 08005KT P6SM SCT025
     FM022000 31007KT P6SM FEW040
     FM030100 VRB04KT P6SM FEW040
     FM030800 VRB04KT 4SM BR BKN015=



000
FTUS42 KTBW 021400 AAA
TAFSRQ
TAF AMD
KSRQ 021407Z 0214/0312 07004KT 5SM BR SCT010 BKN025
      TEMPO 0214/0215 OVC005
     FM021500 VRB05KT P6SM SCT025
     FM021900 29008KT P6SM SCT040
     FM030100 VRB05KT P6SM SCT040
     FM030800 09094KT 4SM BR BKN015=



000
FTUS42 KTBW 021400 AAA
TAFRSW
TAF AMD
KRSW 021405Z 0214/0312 09007KT P6SM SCT025
      TEMPO 0214/0215 5SM BR VV005
     FM022000 07008KT P6SM SCT040
     FM030100 VRB05KT P6SM FEW040
     FM030800 07004KT 3SM BR BKN015=



000
FTUS42 KTBW 021400 AAA
TAFFMY
TAF AMD
KFMY 021404Z 0214/0312 09007KT P6SM SCT025
      TEMPO 0214/0215 5SM BR BKN005
     FM022000 06008KT P6SM SCT040
     FM030100 VRB04KT P6SM FEW040
     FM030800 07004KT 5SM BR BKN015=



000
FTUS42 KTBW 021100
TAFSRQ
TAF
KSRQ 021132Z 0212/0312 07004KT 5SM BR SCT010 BKN025
     FM021500 VRB05KT P6SM SCT025
     FM021900 29008KT P6SM SCT040
     FM030100 VRB05KT P6SM SCT040
     FM030800 09094KT 4SM BR BKN015=



000
FTUS42 KTBW 021100
TAFRSW
TAF
KRSW 021132Z 0212/0312 VRB04KT 2SM BR SCT004 SCT010
      TEMPO 0212/0214 1/2SM FG VV004
     FM021400 09007KT P6SM SCT025
     FM022000 07008KT P6SM SCT040
     FM030100 VRB05KT P6SM FEW040
     FM030800 07004KT 3SM BR BKN015=



000
FTUS42 KTBW 021100
TAFPIE
TAF
KPIE 021132Z 0212/0312 VRB04KT 4SM BR BKN012 BKN040
      TEMPO 0212/0214 2SM BR BKN004
     FM021500 08005KT P6SM SCT025
     FM022000 31007KT P6SM FEW040
     FM030100 VRB04KT P6SM FEW040
     FM030800 VRB04KT 4SM BR BKN015=



000
FTUS42 KTBW 021100
TAFSRQ
TAF
KSRQ 021132Z 0212/0312 07004KT 5SM BR SCT010 BKN025
     FM021500 VRB05KT P6SM SCT025
     FM021900 29008KT P6SM SCT040
     FM030100 VRB05KT P6SM SCT040
     FM030800 09094KT 4SM BR BKN015=



000
FTUS42 KTBW 021100
TAFTPA
TAF
KTPA 021132Z 0212/0312 VRB03KT 4SM BR SCT004 BKN015
      TEMPO 0212/0214 2SM BR BKN003
     FM021500 VRB05KT P6SM SCT025
     FM021900 27006KT P6SM FEW040
     FM030000 VRB04KT P6SM FEW040
     FM030800 VRB03KT 4SM BR BKN015=



000
FTUS42 KTBW 021100
TAFFMY
TAF
KFMY 021132Z 0212/0312 VRB04KT 2SM BR SCT004 SCT010
      TEMPO 0212/0214 1/2SM FG VV004
     FM021400 09007KT P6SM SCT025
     FM022000 06008KT P6SM SCT040
     FM030100 VRB04KT P6SM FEW040
     FM030800 07004KT 5SM BR BKN015=



000
FTUS42 KTBW 021100
TAFRSW
TAF
KRSW 021132Z 0212/0312 VRB04KT 2SM BR SCT004 SCT010
      TEMPO 0212/0214 1/2SM FG VV004
     FM021400 09007KT P6SM SCT025
     FM022000 07008KT P6SM SCT040
     FM030100 VRB05KT P6SM FEW040
     FM030800 07004KT 3SM BR BKN015=



000
FTUS42 KTBW 021100
TAFFMY
TAF
KFMY 021132Z 0212/0312 VRB04KT 2SM BR SCT004 SCT010
      TEMPO 0212/0214 1/2SM FG VV004
     FM021400 09007KT P6SM SCT025
     FM022000 06008KT P6SM SCT040
     FM030100 VRB04KT P6SM FEW040
     FM030800 07004KT 5SM BR BKN015=



000
FTUS42 KTBW 021100
TAFPIE
TAF
KPIE 021132Z 0212/0312 VRB04KT 4SM BR BKN012 BKN040
      TEMPO 0212/0214 2SM BR BKN004
     FM021500 08005KT P6SM SCT025
     FM022000 31007KT P6SM FEW040
     FM030100 VRB04KT P6SM FEW040
     FM030800 VRB04KT 4SM BR BKN015=



000
FTUS42 KTBW 021100
TAFTPA
TAF
KTPA 021132Z 0212/0312 VRB03KT 4SM BR SCT004 BKN015
      TEMPO 0212/0214 2SM BR BKN003
     FM021500 VRB05KT P6SM SCT025
     FM021900 27006KT P6SM FEW040
     FM030000 VRB04KT P6SM FEW040
     FM030800 VRB03KT 4SM BR BKN015=



000
FTUS42 KTBW 021000 AAA
TAFPIE
TAF AMD
KPIE 021050Z 0211/0306 VRB04KT 6SM BR BKN010 BKN040
      TEMPO 0211/0214 4SM BR BKN006
     FM021400 08005KT P6SM SCT025
     FM022000 31007KT P6SM FEW040
     FM030100 VRB04KT P6SM FEW040=



000
FTUS42 KTBW 021000 AAB
TAFTPA
TAF AMD
KTPA 021027Z 0210/0306 VRB03KT 3SM BR SCT004 BKN012
      TEMPO 0210/0214 2SM BR BKN003
     FM021400 VRB05KT P6SM SCT025
     FM021900 27006KT P6SM FEW040
     FM030000 VRB04KT P6SM FEW040=



000
FTUS42 KTBW 021000 AAB
TAFFMY
TAF AMD
KFMY 021004Z 0210/0306 VRB04KT 2SM BR SCT004 SCT010
      TEMPO 0210/0213 1/2SM FG VV004
     FM021400 09007KT P6SM SCT025
     FM022000 06008KT P6SM SCT040
     FM030100 VRB04KT P6SM FEW040=



000
FTUS42 KTBW 020900 AAA
TAFFMY
TAF AMD
KFMY 020937Z 0210/0306 VRB04KT 4SM BR FEW004 SCT010
      TEMPO 0210/0213 1SM BR
     FM021400 09007KT P6SM SCT025
     FM022000 06008KT P6SM SCT040
     FM030100 VRB04KT P6SM FEW040=



000
FTUS42 KTBW 020900 AAA
TAFRSW
TAF AMD
KRSW 020936Z 0210/0306 VRB05KT 2SM BR SCT004 SCT010
      TEMPO 0210/0213 1/2SM FG VV004
     FM021400 09007KT P6SM SCT025
     FM022000 07008KT P6SM SCT040
     FM030100 VRB05KT P6SM FEW040=



000
FTUS42 KTBW 020800 AAA
TAFTPA
TAF AMD
KTPA 020859Z 0209/0306 VRB03KT 6SM BR SCT010 BKN030
      TEMPO 0210/0213 5SM BR BKN010
     FM021400 VRB05KT P6SM SCT025
     FM021900 27006KT P6SM FEW040
     FM030000 VRB04KT P6SM FEW040=



000
FTUS42 KTBW 020800 AAA
TAFTPA
TAF AMD
KTPA 020859Z 0209/0306 VRB03KT 6SM BR SCT010 BKN030
      TEMPO 0210/0213 5SM BR BKN010
     FM021400 VRB05KT P6SM SCT025
     FM021900 27006KT P6SM FEW040
     FM030000 VRB04KT P6SM FEW040=



000
FTUS42 KTBW 020500 RRA
TAFTPA
TAF
KTPA 020547Z 0206/0306 VRB03KT P6SM BKN035
     FM020900 VRB03KT 5SM BR SCT010 BKN025
      TEMPO 0210/0213 BKN010
     FM021400 VRB05KT P6SM SCT025
     FM021900 27006KT P6SM FEW040
     FM030000 VRB04KT P6SM FEW040=



000
FTUS42 KTBW 020500 RRA
TAFSRQ
TAF
KSRQ 020547Z 0206/0306 07005KT P6SM SCT030
     FM020900 07004KT 5SM BR SCT010 BKN025
     FM021400 VRB05KT P6SM SCT025
     FM021900 29008KT P6SM SCT040
     FM030100 VRB05KT P6SM SCT040=



000
FTUS42 KTBW 020500 RRA
TAFRSW
TAF
KRSW 020547Z 0206/0306 VRB04KT P6SM FEW030
     FM020900 VRB03KT 3SM BR SCT010
     FM021400 09007KT P6SM SCT025
     FM022000 07008KT P6SM SCT040
     FM030100 VRB05KT P6SM FEW040=



000
FTUS42 KTBW 020500 RRA
TAFFMY
TAF
KFMY 020547Z 0206/0306 VRB04KT P6SM FEW030
     FM020900 VRB03KT 4SM BR SCT010
     FM021400 09007KT P6SM SCT025
     FM022000 06008KT P6SM SCT040
     FM030100 VRB04KT P6SM FEW040=



000
FTUS42 KTBW 020500 RRA
TAFPIE
TAF
KPIE 020547Z 0206/0306 VRB04KT P6SM SCT035
     FM020900 VRB04KT 6SM BR SCT010 BKN025
      TEMPO 0210/0213 BKN010
     FM021400 08005KT P6SM SCT025
     FM022000 31007KT P6SM FEW040
     FM030100 VRB04KT P6SM FEW040=



000
FTUS42 KTBW 020500 RRA
TAFSRQ
TAF
KSRQ 020547Z 0206/0306 07005KT P6SM SCT030
     FM020900 07004KT 5SM BR SCT010 BKN025
     FM021400 VRB05KT P6SM SCT025
     FM021900 29008KT P6SM SCT040
     FM030100 VRB05KT P6SM SCT040=



000
FTUS42 KTBW 020500 RRA
TAFPIE
TAF
KPIE 020547Z 0206/0306 VRB04KT P6SM SCT035
     FM020900 VRB04KT 6SM BR SCT010 BKN025
      TEMPO 0210/0213 BKN010
     FM021400 08005KT P6SM SCT025
     FM022000 31007KT P6SM FEW040
     FM030100 VRB04KT P6SM FEW040=



000
FTUS42 KTBW 020500 RRA
TAFFMY
TAF
KFMY 020547Z 0206/0306 VRB04KT P6SM FEW030
     FM020900 VRB03KT 4SM BR SCT010
     FM021400 09007KT P6SM SCT025
     FM022000 06008KT P6SM SCT040
     FM030100 VRB04KT P6SM FEW040=



000
FTUS42 KTBW 020500 RRA
TAFRSW
TAF
KRSW 020547Z 0206/0306 VRB04KT P6SM FEW030
     FM020900 VRB03KT 3SM BR SCT010
     FM021400 09007KT P6SM SCT025
     FM022000 07008KT P6SM SCT040
     FM030100 VRB05KT P6SM FEW040=



000
FTUS42 KTBW 020500 RRA
TAFTPA
TAF
KTPA 020547Z 0206/0306 VRB03KT P6SM BKN035
     FM020900 VRB03KT 5SM BR SCT010 BKN025
      TEMPO 0210/0213 BKN010
     FM021400 VRB05KT P6SM SCT025
     FM021900 27006KT P6SM FEW040
     FM030000 VRB04KT P6SM FEW040=



000
FTUS42 KTBW 020200 AAA
TAFTPA
TAF AMD
KTPA 020251Z 0203/0224 00000KT P6SM FEW040
     FM020800 VRB03KT 4SM BR SCT005
     FM021500 09004KT P6SM SCT030 SCT250
     FM022000 26007KT P6SM SCT040 SCT250=



000
FTUS42 KTBW 012300
TAFFMY
TAF
KFMY 012340Z 0200/0224 06007KT P6SM SCT045 BKN090
     FM020800 07003KT 4SM BR SCT010
     FM021500 08007KT P6SM SCT030 SCT250=



000
FTUS42 KTBW 012300
TAFRSW
TAF
KRSW 012340Z 0200/0224 09005KT P6SM SCT045 BKN090
     FM020800 07004KT 4SM BR SCT005
     FM021500 08009KT P6SM SCT030 SCT250=



000
FTUS42 KTBW 012300
TAFPIE
TAF
KPIE 012340Z 0200/0224 32007KT P6SM SCT045 BKN060
     FM020800 VRB04KT 4SM BR SCT005
     FM021500 10005KT P6SM SCT030 SCT250
     FM022000 31007KT P6SM SCT040 SCT250=



000
FTUS42 KTBW 012300
TAFTPA
TAF
KTPA 012340Z 0200/0224 01005KT P6SM SCT040 BKN060
     FM020800 VRB03KT 4SM BR SCT005
     FM021500 09004KT P6SM SCT030 SCT250
     FM022000 26007KT P6SM SCT040 SCT250=



000
FTUS42 KTBW 012300
TAFSRQ
TAF
KSRQ 012340Z 0200/0224 30006KT P6SM SCT030 SCT090
     FM020800 VRB03KT 4SM BR SCT005
     FM021500 09004KT P6SM SCT030 SCT250
     FM021900 27008KT P6SM SCT040 SCT250=



000
FTUS42 KTBW 012300
TAFSRQ
TAF
KSRQ 012340Z 0200/0224 30006KT P6SM SCT030 SCT090
     FM020800 VRB03KT 4SM BR SCT005
     FM021500 09004KT P6SM SCT030 SCT250
     FM021900 27008KT P6SM SCT040 SCT250=



000
FTUS42 KTBW 012300
TAFFMY
TAF
KFMY 012340Z 0200/0224 06007KT P6SM SCT045 BKN090
     FM020800 07003KT 4SM BR SCT010
     FM021500 08007KT P6SM SCT030 SCT250=



000
FTUS42 KTBW 012300
TAFRSW
TAF
KRSW 012340Z 0200/0224 09005KT P6SM SCT045 BKN090
     FM020800 07004KT 4SM BR SCT005
     FM021500 08009KT P6SM SCT030 SCT250=



000
FTUS42 KTBW 012300
TAFPIE
TAF
KPIE 012340Z 0200/0224 32007KT P6SM SCT045 BKN060
     FM020800 VRB04KT 4SM BR SCT005
     FM021500 10005KT P6SM SCT030 SCT250
     FM022000 31007KT P6SM SCT040 SCT250=



000
FTUS42 KTBW 012300
TAFTPA
TAF
KTPA 012340Z 0200/0224 01005KT P6SM SCT040 BKN060
     FM020800 VRB03KT 4SM BR SCT005
     FM021500 09004KT P6SM SCT030 SCT250
     FM022000 26007KT P6SM SCT040 SCT250=



000
FTUS42 KTBW 012000 AAA
TAFTPA
TAF AMD
KTPA 012052Z 0121/0218 25006KT P6SM VCSH SCT040 SCT070
     FM020000 VRB04KT P6SM SCT045 BKN080
     FM020600 VRB03KT 4SM BR SCT012 SCT050
     FM021300 10005KT P6SM FEW030 SCT250=



000
FTUS42 KTBW 012000 AAA
TAFRSW
TAF AMD
KRSW 012045Z 0121/0218 13006KT P6SM VCSH SCT040 SCT100
      TEMPO 0121/0122 4SM SHRA BKN030
     FM020000 08005KT P6SM SCT045
     FM020600 07004KT 4SM BR SCT012
     FM021300 10009KT P6SM FEW030 SCT250=



000
FTUS42 KTBW 012000 AAA
TAFFMY
TAF AMD
KFMY 012045Z 0121/0218 16006KT P6SM VCSH SCT040 SCT100
      TEMPO 0121/0122 4SM SHRA BKN030
     FM020000 07004KT P6SM SCT045
     FM020600 07003KT 4SM BR SCT012
     FM021300 09007KT P6SM FEW030 SCT250=



000
FTUS42 KTBW 012000 AAA
TAFRSW
TAF AMD
KRSW 012045Z 0121/0218 13006KT P6SM VCSH SCT040 SCT100
      TEMPO 0121/0122 4SM SHRA BKN030
     FM020000 08005KT P6SM SCT045
     FM020600 07004KT 4SM BR SCT012
     FM021300 10009KT P6SM FEW030 SCT250=



000
FTUS42 KTBW 012000 AAA
TAFFMY
TAF AMD
KFMY 012045Z 0121/0218 16006KT P6SM VCSH SCT040 SCT100
      TEMPO 0121/0122 4SM SHRA BKN030
     FM020000 07004KT P6SM SCT045
     FM020600 07003KT 4SM BR SCT012
     FM021300 09007KT P6SM FEW030 SCT250=



    US Dept of Commerce
    National Oceanic and Atmospheric Administration
    National Weather Service
    1325 East West Highway
    Silver Spring, MD 20910
    Page Author: NWS Internet Services Team
Disclaimer
Information Quality
Credits
Glossary
Privacy Policy
Freedom of Information Act (FOIA)
About Us
Career Opportunities